sensor_id;sensor_type;location;lat;lon;timestamp;P1;durP1;ratioP1;P2;durP2;ratioP2
10945;SDS011;5525;42.648;23.368;2023-07-13T00:01:14;5.00;;;4.30;;
10945;SDS011;5525;42.648;23.368;2023-07-13T00:03:41;4.35;;;3.55;;
10945;SDS011;5525;42.648;23.368;2023-07-13T00:06:08;4.05;;;3.65;;
10945;SDS011;5525;42.648;23.368;2023-07-13T00:08:35;5.20;;;3.70;;
10945;SDS011;5525;42.648;23.368;2023-07-13T00:11:02;4.85;;;4.10;;
10945;SDS011;5525;42.648;23.368;2023-07-13T00:13:31;4.38;;;3.53;;
10945;SDS011;5525;42.648;23.368;2023-07-13T00:15:58;4.35;;;3.78;;
10945;SDS011;5525;42.648;23.368;2023-07-13T00:18:27;7.85;;;4.10;;
10945;SDS011;5525;42.648;23.368;2023-07-13T00:20:55;5.32;;;4.32;;
10945;SDS011;5525;42.648;23.368;2023-07-13T00:23:30;6.22;;;4.50;;
10945;SDS011;5525;42.648;23.368;2023-07-13T00:25:58;4.85;;;4.30;;
10945;SDS011;5525;42.648;23.368;2023-07-13T00:28:25;13.98;;;5.65;;
10945;SDS011;5525;42.648;23.368;2023-07-13T00:30:52;6.15;;;4.40;;
10945;SDS011;5525;42.648;23.368;2023-07-13T00:33:19;8.63;;;4.72;;
10945;SDS011;5525;42.648;23.368;2023-07-13T00:35:47;7.07;;;4.80;;
10945;SDS011;5525;42.648;23.368;2023-07-13T00:38:14;5.30;;;4.22;;
10945;SDS011;5525;42.648;23.368;2023-07-13T00:40:41;5.80;;;4.20;;
10945;SDS011;5525;42.648;23.368;2023-07-13T00:43:09;5.43;;;4.25;;
10945;SDS011;5525;42.648;23.368;2023-07-13T00:48:37;5.57;;;4.38;;
10945;SDS011;5525;42.648;23.368;2023-07-13T00:51:06;5.15;;;4.28;;
10945;SDS011;5525;42.648;23.368;2023-07-13T00:53:33;5.28;;;4.30;;
10945;SDS011;5525;42.648;23.368;2023-07-13T00:56:00;5.13;;;4.10;;
10945;SDS011;5525;42.648;23.368;2023-07-13T00:58:28;4.72;;;4.20;;
10945;SDS011;5525;42.648;23.368;2023-07-13T01:00:56;5.57;;;4.43;;
10945;SDS011;5525;42.648;23.368;2023-07-13T01:03:22;8.10;;;4.00;;
10945;SDS011;5525;42.648;23.368;2023-07-13T01:05:49;6.93;;;4.40;;
10945;SDS011;5525;42.648;23.368;2023-07-13T01:08:18;5.00;;;4.50;;
10945;SDS011;5525;42.648;23.368;2023-07-13T01:10:50;5.95;;;4.35;;
10945;SDS011;5525;42.648;23.368;2023-07-13T01:13:18;5.10;;;4.32;;
10945;SDS011;5525;42.648;23.368;2023-07-13T01:15:45;4.85;;;4.40;;
10945;SDS011;5525;42.648;23.368;2023-07-13T01:18:15;4.97;;;4.25;;
10945;SDS011;5525;42.648;23.368;2023-07-13T01:20:49;5.13;;;4.15;;
10945;SDS011;5525;42.648;23.368;2023-07-13T01:23:17;4.50;;;4.00;;
10945;SDS011;5525;42.648;23.368;2023-07-13T01:25:44;6.60;;;4.50;;
10945;SDS011;5525;42.648;23.368;2023-07-13T01:28:11;7.50;;;5.00;;
10945;SDS011;5525;42.648;23.368;2023-07-13T01:30:39;6.47;;;4.32;;
10945;SDS011;5525;42.648;23.368;2023-07-13T01:33:06;5.93;;;4.88;;
10945;SDS011;5525;42.648;23.368;2023-07-13T01:35:34;4.97;;;4.47;;
10945;SDS011;5525;42.648;23.368;2023-07-13T01:38:03;5.00;;;4.50;;
10945;SDS011;5525;42.648;23.368;2023-07-13T01:40:30;5.03;;;4.50;;
10945;SDS011;5525;42.648;23.368;2023-07-13T01:42:58;6.05;;;4.28;;
10945;SDS011;5525;42.648;23.368;2023-07-13T01:45:24;5.93;;;4.85;;
10945;SDS011;5525;42.648;23.368;2023-07-13T01:47:51;6.65;;;4.70;;
10945;SDS011;5525;42.648;23.368;2023-07-13T01:50:18;5.15;;;4.63;;
10945;SDS011;5525;42.648;23.368;2023-07-13T01:52:44;7.65;;;4.95;;
10945;SDS011;5525;42.648;23.368;2023-07-13T01:55:12;5.10;;;4.60;;
10945;SDS011;5525;42.648;23.368;2023-07-13T01:57:39;5.00;;;4.45;;
10945;SDS011;5525;42.648;23.368;2023-07-13T02:00:06;5.93;;;5.07;;
10945;SDS011;5525;42.648;23.368;2023-07-13T02:02:35;5.18;;;4.63;;
10945;SDS011;5525;42.648;23.368;2023-07-13T02:05:02;5.20;;;4.68;;
10945;SDS011;5525;42.648;23.368;2023-07-13T02:07:29;5.40;;;4.90;;
10945;SDS011;5525;42.648;23.368;2023-07-13T02:09:56;5.00;;;4.45;;
10945;SDS011;5525;42.648;23.368;2023-07-13T02:12:24;6.68;;;4.68;;
10945;SDS011;5525;42.648;23.368;2023-07-13T02:14:50;5.88;;;4.80;;
10945;SDS011;5525;42.648;23.368;2023-07-13T02:17:17;6.35;;;5.22;;
10945;SDS011;5525;42.648;23.368;2023-07-13T02:19:44;6.45;;;4.97;;
10945;SDS011;5525;42.648;23.368;2023-07-13T02:22:10;5.88;;;4.53;;
10945;SDS011;5525;42.648;23.368;2023-07-13T02:24:37;5.70;;;4.57;;
10945;SDS011;5525;42.648;23.368;2023-07-13T02:27:04;5.32;;;4.32;;
10945;SDS011;5525;42.648;23.368;2023-07-13T02:29:32;5.75;;;4.93;;
10945;SDS011;5525;42.648;23.368;2023-07-13T02:31:59;5.32;;;4.82;;
10945;SDS011;5525;42.648;23.368;2023-07-13T02:34:26;5.97;;;4.35;;
10945;SDS011;5525;42.648;23.368;2023-07-13T02:36:52;5.47;;;4.85;;
10945;SDS011;5525;42.648;23.368;2023-07-13T02:39:19;6.22;;;5.05;;
10945;SDS011;5525;42.648;23.368;2023-07-13T02:41:46;5.25;;;4.75;;
10945;SDS011;5525;42.648;23.368;2023-07-13T02:44:12;9.38;;;8.50;;
10945;SDS011;5525;42.648;23.368;2023-07-13T02:46:41;8.73;;;7.97;;
10945;SDS011;5525;42.648;23.368;2023-07-13T02:49:08;7.90;;;4.93;;
10945;SDS011;5525;42.648;23.368;2023-07-13T02:51:34;7.00;;;5.15;;
10945;SDS011;5525;42.648;23.368;2023-07-13T02:54:01;8.00;;;5.13;;
10945;SDS011;5525;42.648;23.368;2023-07-13T02:56:29;5.30;;;4.80;;
10945;SDS011;5525;42.648;23.368;2023-07-13T02:58:56;5.43;;;4.93;;
10945;SDS011;5525;42.648;23.368;2023-07-13T03:01:23;7.55;;;5.30;;
10945;SDS011;5525;42.648;23.368;2023-07-13T03:03:52;7.07;;;5.32;;
10945;SDS011;5525;42.648;23.368;2023-07-13T03:06:19;5.38;;;4.85;;
10945;SDS011;5525;42.648;23.368;2023-07-13T03:08:46;7.78;;;5.80;;
10945;SDS011;5525;42.648;23.368;2023-07-13T03:11:15;7.05;;;5.57;;
10945;SDS011;5525;42.648;23.368;2023-07-13T03:13:43;6.60;;;5.10;;
10945;SDS011;5525;42.648;23.368;2023-07-13T03:16:10;6.18;;;5.07;;
10945;SDS011;5525;42.648;23.368;2023-07-13T03:18:37;7.00;;;6.22;;
10945;SDS011;5525;42.648;23.368;2023-07-13T03:21:06;7.63;;;5.53;;
10945;SDS011;5525;42.648;23.368;2023-07-13T03:23:32;8.15;;;5.45;;
10945;SDS011;5525;42.648;23.368;2023-07-13T03:26:03;6.75;;;5.78;;
10945;SDS011;5525;42.648;23.368;2023-07-13T03:28:31;7.78;;;5.68;;
10945;SDS011;5525;42.648;23.368;2023-07-13T03:31:02;6.82;;;5.32;;
10945;SDS011;5525;42.648;23.368;2023-07-13T03:33:31;7.57;;;5.82;;
10945;SDS011;5525;42.648;23.368;2023-07-13T03:35:58;14.10;;;5.88;;
10945;SDS011;5525;42.648;23.368;2023-07-13T03:38:26;6.72;;;5.78;;
10945;SDS011;5525;42.648;23.368;2023-07-13T03:40:53;6.53;;;5.03;;
10945;SDS011;5525;42.648;23.368;2023-07-13T03:43:19;9.00;;;5.38;;
10945;SDS011;5525;42.648;23.368;2023-07-13T03:45:46;5.88;;;5.18;;
10945;SDS011;5525;42.648;23.368;2023-07-13T03:48:13;8.68;;;5.30;;
10945;SDS011;5525;42.648;23.368;2023-07-13T03:50:41;10.45;;;6.10;;
10945;SDS011;5525;42.648;23.368;2023-07-13T03:53:07;8.25;;;5.75;;
10945;SDS011;5525;42.648;23.368;2023-07-13T03:55:36;13.07;;;6.22;;
10945;SDS011;5525;42.648;23.368;2023-07-13T04:00:51;7.97;;;6.45;;
10945;SDS011;5525;42.648;23.368;2023-07-13T04:03:18;7.05;;;5.90;;
10945;SDS011;5525;42.648;23.368;2023-07-13T04:05:45;8.70;;;5.75;;
10945;SDS011;5525;42.648;23.368;2023-07-13T04:08:12;8.25;;;6.07;;
10945;SDS011;5525;42.648;23.368;2023-07-13T04:10:40;9.60;;;6.10;;
10945;SDS011;5525;42.648;23.368;2023-07-13T04:13:07;12.73;;;6.25;;
10945;SDS011;5525;42.648;23.368;2023-07-13T04:15:34;7.90;;;5.95;;
10945;SDS011;5525;42.648;23.368;2023-07-13T04:18:01;8.57;;;5.68;;
10945;SDS011;5525;42.648;23.368;2023-07-13T04:20:29;8.93;;;5.82;;
10945;SDS011;5525;42.648;23.368;2023-07-13T04:22:56;10.35;;;6.47;;
10945;SDS011;5525;42.648;23.368;2023-07-13T04:25:23;12.30;;;6.25;;
10945;SDS011;5525;42.648;23.368;2023-07-13T04:27:52;23.83;;;6.78;;
10945;SDS011;5525;42.648;23.368;2023-07-13T04:30:19;8.88;;;6.32;;
10945;SDS011;5525;42.648;23.368;2023-07-13T04:32:46;10.52;;;6.22;;
10945;SDS011;5525;42.648;23.368;2023-07-13T04:35:13;14.10;;;8.82;;
10945;SDS011;5525;42.648;23.368;2023-07-13T04:37:40;9.48;;;6.28;;
10945;SDS011;5525;42.648;23.368;2023-07-13T04:40:07;10.38;;;6.45;;
10945;SDS011;5525;42.648;23.368;2023-07-13T04:42:37;7.47;;;6.35;;
10945;SDS011;5525;42.648;23.368;2023-07-13T04:45:06;10.52;;;6.40;;
10945;SDS011;5525;42.648;23.368;2023-07-13T04:47:33;30.15;;;7.72;;
10945;SDS011;5525;42.648;23.368;2023-07-13T04:50:00;8.43;;;6.80;;
10945;SDS011;5525;42.648;23.368;2023-07-13T04:52:26;8.73;;;6.63;;
10945;SDS011;5525;42.648;23.368;2023-07-13T04:54:53;11.25;;;6.55;;
10945;SDS011;5525;42.648;23.368;2023-07-13T04:57:20;8.07;;;6.38;;
10945;SDS011;5525;42.648;23.368;2023-07-13T04:59:47;11.00;;;7.10;;
10945;SDS011;5525;42.648;23.368;2023-07-13T05:02:15;12.98;;;6.95;;
10945;SDS011;5525;42.648;23.368;2023-07-13T05:04:41;8.05;;;7.00;;
10945;SDS011;5525;42.648;23.368;2023-07-13T05:07:09;8.32;;;6.88;;
10945;SDS011;5525;42.648;23.368;2023-07-13T05:09:36;8.82;;;6.93;;
10945;SDS011;5525;42.648;23.368;2023-07-13T05:12:04;7.95;;;6.68;;
10945;SDS011;5525;42.648;23.368;2023-07-13T05:14:31;12.82;;;7.25;;
10945;SDS011;5525;42.648;23.368;2023-07-13T05:16:58;9.50;;;7.22;;
10945;SDS011;5525;42.648;23.368;2023-07-13T05:19:26;8.50;;;7.60;;
10945;SDS011;5525;42.648;23.368;2023-07-13T05:21:53;10.90;;;7.20;;
10945;SDS011;5525;42.648;23.368;2023-07-13T05:24:19;8.65;;;7.07;;
10945;SDS011;5525;42.648;23.368;2023-07-13T05:26:47;10.15;;;6.90;;
10945;SDS011;5525;42.648;23.368;2023-07-13T05:29:13;8.57;;;6.70;;
10945;SDS011;5525;42.648;23.368;2023-07-13T05:31:40;9.75;;;6.75;;
10945;SDS011;5525;42.648;23.368;2023-07-13T05:34:07;8.45;;;7.53;;
10945;SDS011;5525;42.648;23.368;2023-07-13T05:36:35;7.95;;;7.05;;
10945;SDS011;5525;42.648;23.368;2023-07-13T05:39:02;10.88;;;7.00;;
10945;SDS011;5525;42.648;23.368;2023-07-13T05:41:29;7.78;;;6.15;;
10945;SDS011;5525;42.648;23.368;2023-07-13T05:43:56;9.88;;;7.28;;
10945;SDS011;5525;42.648;23.368;2023-07-13T05:46:23;6.85;;;6.25;;
10945;SDS011;5525;42.648;23.368;2023-07-13T05:48:49;6.80;;;6.20;;
10945;SDS011;5525;42.648;23.368;2023-07-13T05:51:16;9.10;;;6.40;;
10945;SDS011;5525;42.648;23.368;2023-07-13T05:53:44;8.32;;;6.82;;
10945;SDS011;5525;42.648;23.368;2023-07-13T05:56:11;7.70;;;6.90;;
10945;SDS011;5525;42.648;23.368;2023-07-13T05:58:37;9.60;;;7.03;;
10945;SDS011;5525;42.648;23.368;2023-07-13T06:01:05;11.88;;;7.72;;
10945;SDS011;5525;42.648;23.368;2023-07-13T06:03:37;12.60;;;7.63;;
10945;SDS011;5525;42.648;23.368;2023-07-13T06:06:04;9.55;;;6.90;;
10945;SDS011;5525;42.648;23.368;2023-07-13T06:08:31;7.53;;;6.82;;
10945;SDS011;5525;42.648;23.368;2023-07-13T06:11:06;7.45;;;6.53;;
10945;SDS011;5525;42.648;23.368;2023-07-13T06:13:34;8.38;;;7.10;;
10945;SDS011;5525;42.648;23.368;2023-07-13T06:16:01;9.27;;;7.03;;
10945;SDS011;5525;42.648;23.368;2023-07-13T06:18:30;10.18;;;7.25;;
10945;SDS011;5525;42.648;23.368;2023-07-13T06:20:57;9.07;;;7.30;;
10945;SDS011;5525;42.648;23.368;2023-07-13T06:23:24;10.10;;;7.45;;
10945;SDS011;5525;42.648;23.368;2023-07-13T06:25:51;13.82;;;7.45;;
10945;SDS011;5525;42.648;23.368;2023-07-13T06:28:19;8.45;;;7.18;;
10945;SDS011;5525;42.648;23.368;2023-07-13T06:30:46;8.43;;;7.05;;
10945;SDS011;5525;42.648;23.368;2023-07-13T06:33:13;8.88;;;7.20;;
10945;SDS011;5525;42.648;23.368;2023-07-13T06:35:39;8.82;;;7.53;;
10945;SDS011;5525;42.648;23.368;2023-07-13T06:38:06;8.50;;;7.57;;
10945;SDS011;5525;42.648;23.368;2023-07-13T06:40:33;8.50;;;6.65;;
10945;SDS011;5525;42.648;23.368;2023-07-13T06:42:59;14.85;;;7.70;;
10945;SDS011;5525;42.648;23.368;2023-07-13T06:45:27;9.25;;;7.65;;
10945;SDS011;5525;42.648;23.368;2023-07-13T06:47:54;9.55;;;6.78;;
10945;SDS011;5525;42.648;23.368;2023-07-13T06:50:21;10.25;;;7.70;;
10945;SDS011;5525;42.648;23.368;2023-07-13T06:52:48;10.18;;;7.20;;
10945;SDS011;5525;42.648;23.368;2023-07-13T06:55:14;8.57;;;7.05;;
10945;SDS011;5525;42.648;23.368;2023-07-13T06:57:41;11.70;;;7.22;;
10945;SDS011;5525;42.648;23.368;2023-07-13T07:00:08;7.72;;;7.03;;
10945;SDS011;5525;42.648;23.368;2023-07-13T07:02:37;8.40;;;7.20;;
10945;SDS011;5525;42.648;23.368;2023-07-13T07:05:04;8.90;;;7.43;;
10945;SDS011;5525;42.648;23.368;2023-07-13T07:07:31;9.82;;;6.70;;
10945;SDS011;5525;42.648;23.368;2023-07-13T07:09:58;10.15;;;7.70;;
10945;SDS011;5525;42.648;23.368;2023-07-13T07:12:24;9.68;;;7.20;;
10945;SDS011;5525;42.648;23.368;2023-07-13T07:14:51;12.15;;;7.50;;
10945;SDS011;5525;42.648;23.368;2023-07-13T07:17:17;9.55;;;7.50;;
10945;SDS011;5525;42.648;23.368;2023-07-13T07:19:45;13.35;;;7.55;;
10945;SDS011;5525;42.648;23.368;2023-07-13T07:22:12;14.60;;;7.70;;
10945;SDS011;5525;42.648;23.368;2023-07-13T07:24:39;8.40;;;7.32;;
10945;SDS011;5525;42.648;23.368;2023-07-13T07:27:06;12.07;;;7.55;;
10945;SDS011;5525;42.648;23.368;2023-07-13T07:29:32;9.00;;;7.47;;
10945;SDS011;5525;42.648;23.368;2023-07-13T07:31:59;8.82;;;7.47;;
10945;SDS011;5525;42.648;23.368;2023-07-13T07:34:26;9.52;;;7.78;;
10945;SDS011;5525;42.648;23.368;2023-07-13T07:36:54;7.82;;;7.03;;
10945;SDS011;5525;42.648;23.368;2023-07-13T07:39:23;15.80;;;8.07;;
10945;SDS011;5525;42.648;23.368;2023-07-13T07:41:50;11.52;;;8.07;;
10945;SDS011;5525;42.648;23.368;2023-07-13T07:44:16;14.07;;;8.45;;
10945;SDS011;5525;42.648;23.368;2023-07-13T07:46:43;12.50;;;8.68;;
10945;SDS011;5525;42.648;23.368;2023-07-13T07:49:10;10.27;;;8.13;;
10945;SDS011;5525;42.648;23.368;2023-07-13T07:51:36;12.00;;;8.07;;
10945;SDS011;5525;42.648;23.368;2023-07-13T07:54:04;11.60;;;7.93;;
10945;SDS011;5525;42.648;23.368;2023-07-13T07:56:32;12.95;;;8.15;;
10945;SDS011;5525;42.648;23.368;2023-07-13T07:58:59;9.23;;;7.30;;
10945;SDS011;5525;42.648;23.368;2023-07-13T08:01:25;10.73;;;7.40;;
10945;SDS011;5525;42.648;23.368;2023-07-13T08:03:52;8.52;;;7.13;;
10945;SDS011;5525;42.648;23.368;2023-07-13T08:06:19;8.40;;;7.47;;
10945;SDS011;5525;42.648;23.368;2023-07-13T08:08:47;7.82;;;7.13;;
10945;SDS011;5525;42.648;23.368;2023-07-13T08:11:17;9.05;;;7.43;;
10945;SDS011;5525;42.648;23.368;2023-07-13T08:13:44;7.78;;;6.97;;
10945;SDS011;5525;42.648;23.368;2023-07-13T08:16:11;9.68;;;7.28;;
10945;SDS011;5525;42.648;23.368;2023-07-13T08:18:37;9.32;;;7.25;;
10945;SDS011;5525;42.648;23.368;2023-07-13T08:21:04;9.23;;;6.85;;
10945;SDS011;5525;42.648;23.368;2023-07-13T08:23:31;10.07;;;7.00;;
10945;SDS011;5525;42.648;23.368;2023-07-13T08:25:58;10.95;;;7.43;;
10945;SDS011;5525;42.648;23.368;2023-07-13T08:28:28;9.77;;;7.60;;
10945;SDS011;5525;42.648;23.368;2023-07-13T08:30:54;9.05;;;6.78;;
10945;SDS011;5525;42.648;23.368;2023-07-13T08:33:22;8.38;;;7.50;;
10945;SDS011;5525;42.648;23.368;2023-07-13T08:35:50;7.28;;;6.57;;
10945;SDS011;5525;42.648;23.368;2023-07-13T08:38:17;8.75;;;7.28;;
10945;SDS011;5525;42.648;23.368;2023-07-13T08:40:45;8.13;;;7.32;;
10945;SDS011;5525;42.648;23.368;2023-07-13T08:43:16;8.35;;;7.35;;
10945;SDS011;5525;42.648;23.368;2023-07-13T08:45:48;9.10;;;7.47;;
10945;SDS011;5525;42.648;23.368;2023-07-13T08:48:21;9.52;;;7.45;;
10945;SDS011;5525;42.648;23.368;2023-07-13T08:50:53;10.82;;;7.60;;
10945;SDS011;5525;42.648;23.368;2023-07-13T08:53:24;8.48;;;7.75;;
10945;SDS011;5525;42.648;23.368;2023-07-13T08:55:57;103.50;;;14.68;;
10945;SDS011;5525;42.648;23.368;2023-07-13T08:58:25;20.27;;;8.25;;
10945;SDS011;5525;42.648;23.368;2023-07-13T09:00:58;13.68;;;7.93;;
10945;SDS011;5525;42.648;23.368;2023-07-13T09:03:33;9.60;;;7.25;;
10945;SDS011;5525;42.648;23.368;2023-07-13T09:06:06;13.20;;;7.50;;
10945;SDS011;5525;42.648;23.368;2023-07-13T09:08:43;22.85;;;9.05;;
10945;SDS011;5525;42.648;23.368;2023-07-13T09:11:23;17.42;;;8.02;;
10945;SDS011;5525;42.648;23.368;2023-07-13T09:14:00;10.52;;;7.65;;
10945;SDS011;5525;42.648;23.368;2023-07-13T09:16:43;9.35;;;7.40;;
10945;SDS011;5525;42.648;23.368;2023-07-13T09:19:13;10.32;;;7.88;;
10945;SDS011;5525;42.648;23.368;2023-07-13T09:21:47;13.80;;;8.13;;
10945;SDS011;5525;42.648;23.368;2023-07-13T09:24:26;11.75;;;7.70;;
10945;SDS011;5525;42.648;23.368;2023-07-13T09:26:57;9.60;;;7.90;;
10945;SDS011;5525;42.648;23.368;2023-07-13T09:29:26;9.60;;;7.63;;
10945;SDS011;5525;42.648;23.368;2023-07-13T09:32:00;21.15;;;8.40;;
10945;SDS011;5525;42.648;23.368;2023-07-13T09:34:29;9.32;;;8.30;;
10945;SDS011;5525;42.648;23.368;2023-07-13T09:36:58;9.65;;;7.88;;
10945;SDS011;5525;42.648;23.368;2023-07-13T09:39:26;8.82;;;7.85;;
10945;SDS011;5525;42.648;23.368;2023-07-13T09:41:57;9.25;;;7.82;;
10945;SDS011;5525;42.648;23.368;2023-07-13T09:44:33;10.10;;;8.07;;
10945;SDS011;5525;42.648;23.368;2023-07-13T09:47:03;9.40;;;8.27;;
10945;SDS011;5525;42.648;23.368;2023-07-13T09:49:42;11.35;;;8.93;;
10945;SDS011;5525;42.648;23.368;2023-07-13T09:52:10;10.65;;;8.10;;
10945;SDS011;5525;42.648;23.368;2023-07-13T09:54:43;259.25;;;24.88;;
10945;SDS011;5525;42.648;23.368;2023-07-13T09:57:14;16.33;;;9.02;;
10945;SDS011;5525;42.648;23.368;2023-07-13T09:59:43;10.77;;;8.20;;
10945;SDS011;5525;42.648;23.368;2023-07-13T10:02:26;11.95;;;8.52;;
10945;SDS011;5525;42.648;23.368;2023-07-13T10:04:58;9.52;;;8.27;;
10945;SDS011;5525;42.648;23.368;2023-07-13T10:07:27;13.43;;;8.50;;
10945;SDS011;5525;42.648;23.368;2023-07-13T10:09:54;8.55;;;7.68;;
10945;SDS011;5525;42.648;23.368;2023-07-13T10:12:22;11.10;;;7.75;;
10945;SDS011;5525;42.648;23.368;2023-07-13T10:14:50;8.38;;;7.53;;
10945;SDS011;5525;42.648;23.368;2023-07-13T10:17:20;9.27;;;7.93;;
10945;SDS011;5525;42.648;23.368;2023-07-13T10:19:56;9.77;;;7.65;;
10945;SDS011;5525;42.648;23.368;2023-07-13T10:22:29;10.75;;;8.13;;
10945;SDS011;5525;42.648;23.368;2023-07-13T10:25:13;11.55;;;7.60;;
10945;SDS011;5525;42.648;23.368;2023-07-13T10:27:43;10.73;;;8.40;;
10945;SDS011;5525;42.648;23.368;2023-07-13T10:30:12;8.57;;;7.35;;
10945;SDS011;5525;42.648;23.368;2023-07-13T10:32:44;9.98;;;7.75;;
10945;SDS011;5525;42.648;23.368;2023-07-13T10:35:12;8.73;;;7.28;;
10945;SDS011;5525;42.648;23.368;2023-07-13T10:37:43;10.38;;;8.07;;
10945;SDS011;5525;42.648;23.368;2023-07-13T10:40:16;10.23;;;7.57;;
10945;SDS011;5525;42.648;23.368;2023-07-13T10:42:47;8.68;;;7.40;;
10945;SDS011;5525;42.648;23.368;2023-07-13T10:45:18;9.55;;;6.95;;
10945;SDS011;5525;42.648;23.368;2023-07-13T10:47:48;13.65;;;7.30;;
10945;SDS011;5525;42.648;23.368;2023-07-13T10:50:21;11.75;;;7.70;;
10945;SDS011;5525;42.648;23.368;2023-07-13T10:52:50;8.55;;;7.60;;
10945;SDS011;5525;42.648;23.368;2023-07-13T10:55:35;8.00;;;7.05;;
10945;SDS011;5525;42.648;23.368;2023-07-13T10:58:11;9.25;;;4.70;;
10945;SDS011;5525;42.648;23.368;2023-07-13T11:00:43;5.57;;;4.63;;
10945;SDS011;5525;42.648;23.368;2023-07-13T11:03:17;12.63;;;5.35;;
10945;SDS011;5525;42.648;23.368;2023-07-13T11:05:48;12.68;;;4.95;;
10945;SDS011;5525;42.648;23.368;2023-07-13T11:08:19;10.93;;;4.70;;
10945;SDS011;5525;42.648;23.368;2023-07-13T11:10:51;16.55;;;5.72;;
10945;SDS011;5525;42.648;23.368;2023-07-13T11:13:36;14.40;;;5.35;;
10945;SDS011;5525;42.648;23.368;2023-07-13T11:16:26;6.50;;;5.05;;
10945;SDS011;5525;42.648;23.368;2023-07-13T11:22:12;9.75;;;5.53;;
10945;SDS011;5525;42.648;23.368;2023-07-13T11:24:59;7.47;;;5.82;;
10945;SDS011;5525;42.648;23.368;2023-07-13T11:27:38;8.15;;;5.50;;
10945;SDS011;5525;42.648;23.368;2023-07-13T11:35:50;7.97;;;7.15;;
10945;SDS011;5525;42.648;23.368;2023-07-13T11:38:27;9.98;;;7.78;;
10945;SDS011;5525;42.648;23.368;2023-07-13T11:40:56;8.80;;;7.75;;
10945;SDS011;5525;42.648;23.368;2023-07-13T11:43:28;9.70;;;6.70;;
10945;SDS011;5525;42.648;23.368;2023-07-13T11:45:55;16.38;;;9.25;;
10945;SDS011;5525;42.648;23.368;2023-07-13T11:48:23;8.40;;;6.70;;
10945;SDS011;5525;42.648;23.368;2023-07-13T11:50:56;9.40;;;7.50;;
10945;SDS011;5525;42.648;23.368;2023-07-13T11:53:28;9.30;;;7.55;;
10945;SDS011;5525;42.648;23.368;2023-07-13T11:56:00;9.63;;;7.45;;
10945;SDS011;5525;42.648;23.368;2023-07-13T11:58:27;7.88;;;6.60;;
10945;SDS011;5525;42.648;23.368;2023-07-13T12:00:55;8.15;;;7.05;;
10945;SDS011;5525;42.648;23.368;2023-07-13T12:03:26;11.98;;;7.22;;
10945;SDS011;5525;42.648;23.368;2023-07-13T12:05:56;10.68;;;7.05;;
10945;SDS011;5525;42.648;23.368;2023-07-13T12:08:25;8.23;;;7.10;;
10945;SDS011;5525;42.648;23.368;2023-07-13T12:11:04;9.30;;;7.20;;
10945;SDS011;5525;42.648;23.368;2023-07-13T12:13:35;7.90;;;5.38;;
10945;SDS011;5525;42.648;23.368;2023-07-13T12:16:11;10.38;;;5.45;;
10945;SDS011;5525;42.648;23.368;2023-07-13T12:18:41;8.45;;;5.47;;
10945;SDS011;5525;42.648;23.368;2023-07-13T12:21:12;8.43;;;5.55;;
10945;SDS011;5525;42.648;23.368;2023-07-13T12:23:42;7.22;;;4.88;;
10945;SDS011;5525;42.648;23.368;2023-07-13T12:26:11;8.70;;;5.20;;
10945;SDS011;5525;42.648;23.368;2023-07-13T12:28:44;9.13;;;5.20;;
10945;SDS011;5525;42.648;23.368;2023-07-13T12:31:26;8.05;;;5.50;;
10945;SDS011;5525;42.648;23.368;2023-07-13T12:33:58;8.52;;;5.18;;
10945;SDS011;5525;42.648;23.368;2023-07-13T12:36:26;7.30;;;5.53;;
10945;SDS011;5525;42.648;23.368;2023-07-13T12:38:58;8.30;;;5.10;;
10945;SDS011;5525;42.648;23.368;2023-07-13T12:41:30;35.47;;;7.70;;
10945;SDS011;5525;42.648;23.368;2023-07-13T12:43:59;9.20;;;5.70;;
10945;SDS011;5525;42.648;23.368;2023-07-13T12:46:26;10.10;;;6.57;;
10945;SDS011;5525;42.648;23.368;2023-07-13T12:48:56;10.40;;;7.00;;
10945;SDS011;5525;42.648;23.368;2023-07-13T12:51:26;12.20;;;7.72;;
10945;SDS011;5525;42.648;23.368;2023-07-13T12:53:56;9.23;;;7.38;;
10945;SDS011;5525;42.648;23.368;2023-07-13T12:56:25;16.80;;;7.90;;
10945;SDS011;5525;42.648;23.368;2023-07-13T12:58:57;12.98;;;7.18;;
10945;SDS011;5525;42.648;23.368;2023-07-13T13:01:27;12.30;;;6.75;;
10945;SDS011;5525;42.648;23.368;2023-07-13T13:03:55;12.23;;;6.60;;
10945;SDS011;5525;42.648;23.368;2023-07-13T13:06:23;7.70;;;6.35;;
10945;SDS011;5525;42.648;23.368;2023-07-13T13:08:52;12.15;;;7.13;;
10945;SDS011;5525;42.648;23.368;2023-07-13T13:11:19;10.13;;;6.53;;
10945;SDS011;5525;42.648;23.368;2023-07-13T13:13:48;8.13;;;6.63;;
10945;SDS011;5525;42.648;23.368;2023-07-13T13:16:19;8.63;;;6.60;;
10945;SDS011;5525;42.648;23.368;2023-07-13T13:18:59;10.23;;;6.70;;
10945;SDS011;5525;42.648;23.368;2023-07-13T13:21:31;9.48;;;6.95;;
10945;SDS011;5525;42.648;23.368;2023-07-13T13:23:58;11.98;;;6.85;;
10945;SDS011;5525;42.648;23.368;2023-07-13T13:26:25;9.15;;;6.70;;
10945;SDS011;5525;42.648;23.368;2023-07-13T13:28:52;13.07;;;6.95;;
10945;SDS011;5525;42.648;23.368;2023-07-13T13:31:20;7.18;;;6.32;;
10945;SDS011;5525;42.648;23.368;2023-07-13T13:33:46;11.88;;;8.20;;
10945;SDS011;5525;42.648;23.368;2023-07-13T13:36:14;11.07;;;6.90;;
10945;SDS011;5525;42.648;23.368;2023-07-13T13:38:42;11.45;;;6.40;;
10945;SDS011;5525;42.648;23.368;2023-07-13T13:41:10;10.25;;;6.55;;
10945;SDS011;5525;42.648;23.368;2023-07-13T13:43:38;10.18;;;6.30;;
10945;SDS011;5525;42.648;23.368;2023-07-13T13:46:11;14.77;;;6.88;;
10945;SDS011;5525;42.648;23.368;2023-07-13T13:48:43;9.52;;;6.68;;
10945;SDS011;5525;42.648;23.368;2023-07-13T13:51:14;10.55;;;7.10;;
10945;SDS011;5525;42.648;23.368;2023-07-13T13:53:43;11.60;;;6.30;;
10945;SDS011;5525;42.648;23.368;2023-07-13T13:56:10;8.48;;;6.85;;
10945;SDS011;5525;42.648;23.368;2023-07-13T13:58:37;10.15;;;6.35;;
10945;SDS011;5525;42.648;23.368;2023-07-13T14:01:04;9.32;;;7.70;;
10945;SDS011;5525;42.648;23.368;2023-07-13T14:03:37;9.65;;;6.10;;
10945;SDS011;5525;42.648;23.368;2023-07-13T14:06:05;8.55;;;6.28;;
10945;SDS011;5525;42.648;23.368;2023-07-13T14:08:34;9.50;;;6.22;;
10945;SDS011;5525;42.648;23.368;2023-07-13T14:11:02;9.50;;;6.82;;
10945;SDS011;5525;42.648;23.368;2023-07-13T14:13:33;12.98;;;6.50;;
10945;SDS011;5525;42.648;23.368;2023-07-13T14:16:07;8.75;;;6.38;;
10945;SDS011;5525;42.648;23.368;2023-07-13T14:18:37;10.65;;;6.43;;
10945;SDS011;5525;42.648;23.368;2023-07-13T14:21:08;11.93;;;6.30;;
10945;SDS011;5525;42.648;23.368;2023-07-13T14:23:37;8.48;;;6.20;;
10945;SDS011;5525;42.648;23.368;2023-07-13T14:26:06;11.15;;;5.82;;
10945;SDS011;5525;42.648;23.368;2023-07-13T14:28:37;12.85;;;6.72;;
10945;SDS011;5525;42.648;23.368;2023-07-13T14:31:07;8.25;;;6.25;;
10945;SDS011;5525;42.648;23.368;2023-07-13T14:33:34;7.82;;;5.75;;
10945;SDS011;5525;42.648;23.368;2023-07-13T14:36:01;10.57;;;6.45;;
10945;SDS011;5525;42.648;23.368;2023-07-13T14:38:29;9.88;;;6.70;;
10945;SDS011;5525;42.648;23.368;2023-07-13T14:40:56;20.77;;;6.65;;
10945;SDS011;5525;42.648;23.368;2023-07-13T14:43:23;14.52;;;6.63;;
10945;SDS011;5525;42.648;23.368;2023-07-13T14:45:53;10.27;;;5.70;;
10945;SDS011;5525;42.648;23.368;2023-07-13T14:48:23;12.00;;;5.88;;
10945;SDS011;5525;42.648;23.368;2023-07-13T14:50:50;11.73;;;6.60;;
10945;SDS011;5525;42.648;23.368;2023-07-13T14:53:21;8.25;;;6.13;;
10945;SDS011;5525;42.648;23.368;2023-07-13T14:55:49;9.10;;;6.65;;
10945;SDS011;5525;42.648;23.368;2023-07-13T14:58:16;10.40;;;6.07;;
10945;SDS011;5525;42.648;23.368;2023-07-13T15:00:43;9.45;;;6.10;;
10945;SDS011;5525;42.648;23.368;2023-07-13T15:03:14;8.82;;;6.38;;
10945;SDS011;5525;42.648;23.368;2023-07-13T15:05:46;12.50;;;7.18;;
10945;SDS011;5525;42.648;23.368;2023-07-13T15:08:13;12.90;;;6.90;;